Queen Isabella — A8IE2 — position and weather

sailwx.info

Track history (hours):
 
Tides and Currents Weather Stations Pressure Air Temp Water Temp Dewpoint Dewpoint Depression Visibility Wind Speed Wind Dir Waves Ship Positions

Queen Isabella

Last reported at 2017-Sep-21 18:51 UTC. Time now 2017-Sep-23 18:34 UTC.
Position N 43°40' W 006°08'.

Length 131 m; draft 7.9 m.

Type: Ship. MMSI: 636090959.

Date/timePositionNaut miles runAvg speedWind from/ knotsBaromVisibWave heightAir tempDewpointWater temp
2017-Sep-21 18:51N 43°40' W 006°08'8 0.2
2017-Sep-20 07:19N 43°37' W 005°58'1 2.1
2017-Sep-20 06:56N 43°38' W 005°59'3 6.8
2017-Sep-20 06:31N 43°39' W 006°03'611.1
2017-Sep-20 05:59N 43°41' W 006°10'302 9.8
2017-Sep-18 23:17N 39°31' W 009°57'413.1
2017-Sep-18 22:59N 39°27' W 009°57'613.0
2017-Sep-18 22:30N 39°21' W 009°57'713.3
2017-Sep-18 22:00N 39°14' W 009°57'713.2
2017-Sep-18 21:30N 39°07' W 009°57'713.1
2017-Sep-18 21:00N 39°01' W 009°57'713.4
2017-Sep-18 20:30N 38°54' W 009°56'713.2
2017-Sep-18 20:00N 38°48' W 009°56'713.1
2017-Sep-18 19:30N 38°41' W 009°56'612.8
2017-Sep-18 19:00N 38°35' W 009°54'612.8
2017-Sep-18 18:30N 38°29' W 009°53'612.8
2017-Sep-18 18:00N 38°22' W 009°51'713.0
2017-Sep-18 17:30N 38°16' W 009°49'612.9
2017-Sep-18 17:00N 38°10' W 009°47'713.0
2017-Sep-18 16:30N 38°03' W 009°45'713.2
2017-Sep-18 16:00N 37°57' W 009°43'613.0
2017-Sep-18 15:30N 37°51' W 009°41'612.8
2017-Sep-18 15:00N 37°45' W 009°39'22511.9
2017-Sep-17 20:07N 35°59' W 005°31'211.2
2017-Sep-17 19:55N 35°60' W 005°28'410.3
2017-Sep-17 19:30N 36°01' W 005°23'5 9.6
2017-Sep-17 19:00N 36°02' W 005°17'  
2017-Sep-14 01:25N 38°32' E 003°49'512.3
2017-Sep-14 00:58N 38°35' E 003°43'712.3
2017-Sep-14 00:24N 38°38' E 003°35'512.3
2017-Sep-14 00:00N 38°40' E 003°29'612.3
2017-Sep-13 23:30N 38°43' E 003°22'812.3
2017-Sep-13 22:51N 38°46' E 003°13'412.4
2017-Sep-13 22:30N 38°48' E 003°08'612.5
2017-Sep-13 22:00N 38°51' E 003°01'612.4
2017-Sep-13 21:30N 38°54' E 002°53'612.3
2017-Sep-13 21:00N 38°56' E 002°46'612.3
2017-Sep-13 20:30N 38°59' E 002°39'612.2
2017-Sep-13 20:00N 39°02' E 002°32'612.1
2017-Sep-13 19:30N 39°04' E 002°25'612.0
2017-Sep-13 19:00N 39°07' E 002°18'612.0
2017-Sep-13 18:30N 39°09' E 002°11'612.2
2017-Sep-13 18:00N 39°12' E 002°04'611.6
2017-Sep-13 17:30N 39°15' E 001°58'612.4
2017-Sep-13 17:00N 39°18' E 001°50'612.5
2017-Sep-13 16:30N 39°20' E 001°43'612.6
2017-Sep-13 16:00N 39°23' E 001°35'612.4
2017-Sep-13 15:29N 39°25' E 001°28'1512.6
2017-Sep-13 14:16N 39°28' E 001°08'413.0
2017-Sep-13 13:59N 39°28' E 001°04'72 2.1
2017-Sep-12 03:29N 38°27' E 000°15'712.5
2017-Sep-12 02:55N 38°21' E 000°10'512.3
2017-Sep-12 02:31N 38°17' E 000°06'612.6
2017-Sep-12 02:00N 38°12' E 000°01'612.6
2017-Sep-12 01:29N 38°06' W 000°03'612.4
2017-Sep-12 01:00N 38°01' W 000°07'612.3
2017-Sep-12 00:30N 37°56' W 000°12'612.3
2017-Sep-12 00:00N 37°51' W 000°16'612.4
2017-Sep-11 23:30N 37°46' W 000°20'612.7
2017-Sep-11 23:01N 37°40' W 000°24'612.9
2017-Sep-11 22:31N 37°35' W 000°29'813.0
2017-Sep-11 21:54N 37°29' W 000°36'513.0
2017-Sep-11 21:31N 37°26' W 000°40'713.1
2017-Sep-11 21:00N 37°22' W 000°47'613.1
2017-Sep-11 20:31N 37°17' W 000°53'  
Track history (hours):
 
Tides and Currents Weather Stations Pressure Air Temp Water Temp Dewpoint Dewpoint Depression Visibility Wind Speed Wind Dir Waves Ship Positions

Queen Isabella

Last reported at 2017-Sep-21 18:51 UTC. Time now 2017-Sep-23 18:34 UTC.
Position N 43°40' W 006°08'.

Length 131 m; draft 7.9 m.

Type: Ship. MMSI: 636090959.

Date/timePositionNaut miles runAvg speedWind from/ knotsBaromVisibWave heightAir tempDewpointWater temp
2017-Sep-21 18:51N 43°40' W 006°08'8 0.2
2017-Sep-20 07:19N 43°37' W 005°58'1 2.1
2017-Sep-20 06:56N 43°38' W 005°59'3 6.8
2017-Sep-20 06:31N 43°39' W 006°03'611.1
2017-Sep-20 05:59N 43°41' W 006°10'302 9.8
2017-Sep-18 23:17N 39°31' W 009°57'413.1
2017-Sep-18 22:59N 39°27' W 009°57'613.0
2017-Sep-18 22:30N 39°21' W 009°57'713.3
2017-Sep-18 22:00N 39°14' W 009°57'713.2
2017-Sep-18 21:30N 39°07' W 009°57'713.1
2017-Sep-18 21:00N 39°01' W 009°57'713.4
2017-Sep-18 20:30N 38°54' W 009°56'713.2
2017-Sep-18 20:00N 38°48' W 009°56'713.1
2017-Sep-18 19:30N 38°41' W 009°56'612.8
2017-Sep-18 19:00N 38°35' W 009°54'612.8
2017-Sep-18 18:30N 38°29' W 009°53'612.8
2017-Sep-18 18:00N 38°22' W 009°51'713.0
2017-Sep-18 17:30N 38°16' W 009°49'612.9
2017-Sep-18 17:00N 38°10' W 009°47'713.0
2017-Sep-18 16:30N 38°03' W 009°45'713.2
2017-Sep-18 16:00N 37°57' W 009°43'613.0
2017-Sep-18 15:30N 37°51' W 009°41'612.8
2017-Sep-18 15:00N 37°45' W 009°39'22511.9
2017-Sep-17 20:07N 35°59' W 005°31'211.2
2017-Sep-17 19:55N 35°60' W 005°28'410.3
2017-Sep-17 19:30N 36°01' W 005°23'5 9.6
2017-Sep-17 19:00N 36°02' W 005°17'  
2017-Sep-14 01:25N 38°32' E 003°49'512.3
2017-Sep-14 00:58N 38°35' E 003°43'712.3
2017-Sep-14 00:24N 38°38' E 003°35'512.3
2017-Sep-14 00:00N 38°40' E 003°29'612.3
2017-Sep-13 23:30N 38°43' E 003°22'812.3
2017-Sep-13 22:51N 38°46' E 003°13'412.4
2017-Sep-13 22:30N 38°48' E 003°08'612.5
2017-Sep-13 22:00N 38°51' E 003°01'612.4
2017-Sep-13 21:30N 38°54' E 002°53'612.3
2017-Sep-13 21:00N 38°56' E 002°46'612.3
2017-Sep-13 20:30N 38°59' E 002°39'612.2
2017-Sep-13 20:00N 39°02' E 002°32'612.1
2017-Sep-13 19:30N 39°04' E 002°25'612.0
2017-Sep-13 19:00N 39°07' E 002°18'612.0
2017-Sep-13 18:30N 39°09' E 002°11'612.2
2017-Sep-13 18:00N 39°12' E 002°04'611.6
2017-Sep-13 17:30N 39°15' E 001°58'612.4
2017-Sep-13 17:00N 39°18' E 001°50'612.5
2017-Sep-13 16:30N 39°20' E 001°43'612.6
2017-Sep-13 16:00N 39°23' E 001°35'612.4
2017-Sep-13 15:29N 39°25' E 001°28'1512.6
2017-Sep-13 14:16N 39°28' E 001°08'413.0
2017-Sep-13 13:59N 39°28' E 001°04'72 2.1
2017-Sep-12 03:29N 38°27' E 000°15'712.5
2017-Sep-12 02:55N 38°21' E 000°10'512.3
2017-Sep-12 02:31N 38°17' E 000°06'612.6
2017-Sep-12 02:00N 38°12' E 000°01'612.6
2017-Sep-12 01:29N 38°06' W 000°03'612.4
2017-Sep-12 01:00N 38°01' W 000°07'612.3
2017-Sep-12 00:30N 37°56' W 000°12'612.3
2017-Sep-12 00:00N 37°51' W 000°16'612.4
2017-Sep-11 23:30N 37°46' W 000°20'612.7
2017-Sep-11 23:01N 37°40' W 000°24'612.9
2017-Sep-11 22:31N 37°35' W 000°29'813.0
2017-Sep-11 21:54N 37°29' W 000°36'513.0
2017-Sep-11 21:31N 37°26' W 000°40'713.1
2017-Sep-11 21:00N 37°22' W 000°47'613.1
2017-Sep-11 20:31N 37°17' W 000°53'  

Dump ship's entire track history